createdAt,value
2018-07-25T00:00:15.332Z,23.30
2018-07-25T00:02:44.255Z,23.30
2018-07-25T00:05:13.515Z,23.20
2018-07-25T00:07:42.511Z,23.20
2018-07-25T00:10:11.626Z,23.20
2018-07-25T00:12:40.557Z,23.10
2018-07-25T00:15:09.804Z,23.10
2018-07-25T00:17:38.738Z,23.10
2018-07-25T00:20:07.760Z,23.00
2018-07-25T00:22:36.692Z,23.00
2018-07-25T00:25:05.617Z,23.00
2018-07-25T00:27:34.619Z,22.90
2018-07-25T00:30:03.555Z,22.90
2018-07-25T00:32:32.522Z,22.90
2018-07-25T00:35:01.441Z,22.80
2018-07-25T00:37:30.372Z,22.80
2018-07-25T00:39:59.363Z,22.80
2018-07-25T00:44:56.922Z,22.70
2018-07-25T00:47:25.829Z,22.70
2018-07-25T00:49:54.730Z,22.60
2018-07-25T00:52:23.986Z,22.60
2018-07-25T00:54:53.273Z,22.60
2018-07-25T00:57:22.267Z,22.50
2018-07-25T00:59:51.173Z,22.50
2018-07-25T01:02:20.099Z,22.50
2018-07-25T01:04:48.989Z,22.50
2018-07-25T01:07:17.865Z,22.40
2018-07-25T01:09:47.036Z,22.40
2018-07-25T01:12:15.975Z,22.30
2018-07-25T01:14:44.867Z,22.30
2018-07-25T01:17:14.185Z,22.30
2018-07-25T01:19:43.467Z,22.30
2018-07-25T01:22:12.385Z,22.20
2018-07-25T01:24:41.295Z,22.20
2018-07-25T01:27:10.331Z,22.20
2018-07-25T01:29:39.223Z,22.10
2018-07-25T01:32:08.218Z,22.10
2018-07-25T01:34:37.117Z,22.00
2018-07-25T01:37:06.078Z,22.00
2018-07-25T01:39:35.463Z,22.00
2018-07-25T01:42:04.378Z,22.00
2018-07-25T01:44:33.308Z,21.90
2018-07-25T01:47:02.184Z,22.00
2018-07-25T01:49:31.121Z,21.90
2018-07-25T01:52:00.372Z,21.90
2018-07-25T01:54:29.266Z,21.90
2018-07-25T01:56:58.208Z,21.90
2018-07-25T01:59:28.890Z,21.80
2018-07-25T02:01:59.298Z,21.80
2018-07-25T02:04:29.019Z,21.80
2018-07-25T02:06:58.103Z,21.80
2018-07-25T02:09:27.128Z,21.80
2018-07-25T02:11:56.380Z,21.80
2018-07-25T02:14:25.294Z,21.70
2018-07-25T02:16:54.366Z,21.70
2018-07-25T02:19:23.383Z,21.70
2018-07-25T02:21:52.497Z,21.70
2018-07-25T02:24:21.588Z,21.60
2018-07-25T02:26:50.849Z,21.60
2018-07-25T02:29:20.175Z,21.60
2018-07-25T02:31:49.102Z,21.50
2018-07-25T02:34:20.526Z,21.50
2018-07-25T02:36:50.206Z,21.50
2018-07-25T02:39:19.175Z,21.40
2018-07-25T02:41:48.071Z,21.40
2018-07-25T02:44:16.997Z,21.40
2018-07-25T02:46:46.101Z,21.30
2018-07-25T02:49:15.013Z,21.30
2018-07-25T02:51:43.907Z,21.30
2018-07-25T02:54:12.850Z,21.30
2018-07-25T02:56:41.886Z,21.30
2018-07-25T03:01:39.929Z,21.20
2018-07-25T03:04:08.848Z,21.20
2018-07-25T03:06:38.053Z,21.20
2018-07-25T03:09:08.569Z,21.20
2018-07-25T03:11:38.062Z,21.20
2018-07-25T03:14:07.427Z,21.10
2018-07-25T03:16:36.499Z,21.10
2018-07-25T03:19:05.987Z,21.10
2018-07-25T03:21:34.919Z,21.10
2018-07-25T03:24:04.266Z,21.10
2018-07-25T03:26:33.272Z,21.10
2018-07-25T03:29:02.250Z,21.10
2018-07-25T03:31:31.307Z,21.10
2018-07-25T03:34:00.237Z,21.10
2018-07-25T03:36:29.136Z,21.20
2018-07-25T03:38:57.996Z,21.10
2018-07-25T03:41:26.922Z,21.10
2018-07-25T03:43:55.840Z,21.10
2018-07-25T03:46:24.804Z,21.10
2018-07-25T03:48:53.745Z,21.10
2018-07-25T03:51:22.662Z,21.00
2018-07-25T03:53:51.570Z,21.00
2018-07-25T03:56:20.472Z,21.00
2018-07-25T03:58:49.412Z,21.00
2018-07-25T04:01:18.350Z,21.00
2018-07-25T04:03:47.252Z,21.00
2018-07-25T04:06:16.216Z,21.10
2018-07-25T04:08:45.159Z,21.10
2018-07-25T04:11:14.104Z,21.10
2018-07-25T04:16:11.729Z,21.10
2018-07-25T04:18:41.075Z,21.20
2018-07-25T04:21:10.060Z,21.20
2018-07-25T04:23:39.139Z,21.20
2018-07-25T04:26:08.415Z,21.20
2018-07-25T04:28:37.495Z,21.30
2018-07-25T04:31:06.707Z,21.30
2018-07-25T04:33:35.658Z,21.30
2018-07-25T04:36:05.152Z,21.40
2018-07-25T04:38:34.108Z,21.40
2018-07-25T04:41:03.390Z,21.50
2018-07-25T04:43:32.312Z,21.50
2018-07-25T04:46:01.343Z,21.50
2018-07-25T04:48:30.460Z,21.60
2018-07-25T04:50:59.432Z,21.60
2018-07-25T04:53:28.372Z,21.60
2018-07-25T04:55:57.286Z,21.70
2018-07-25T04:58:27.835Z,21.70
2018-07-25T05:00:57.766Z,21.80
2018-07-25T05:03:27.145Z,21.90
2018-07-25T05:05:56.092Z,21.90
2018-07-25T05:08:24.987Z,22.00
2018-07-25T05:10:53.905Z,22.10
2018-07-25T05:13:22.843Z,22.10
2018-07-25T05:15:51.836Z,22.20
2018-07-25T05:18:20.867Z,22.20
2018-07-25T05:20:49.917Z,22.30
2018-07-25T05:23:18.938Z,22.40
2018-07-25T05:25:48.473Z,22.50
2018-07-25T05:28:17.417Z,22.50
2018-07-25T05:30:46.318Z,22.60
2018-07-25T05:33:15.302Z,22.60
2018-07-25T05:35:44.258Z,22.70
2018-07-25T05:38:13.799Z,22.80
2018-07-25T05:40:42.881Z,22.80
2018-07-25T05:43:11.913Z,22.90
2018-07-25T05:45:40.875Z,23.00
2018-07-25T05:48:10.331Z,23.00
2018-07-25T05:50:39.317Z,23.10
2018-07-25T05:53:08.358Z,23.20
2018-07-25T05:55:37.689Z,23.20
2018-07-25T05:58:06.626Z,23.30
2018-07-25T06:00:35.778Z,23.40
2018-07-25T06:03:04.745Z,23.40
2018-07-25T06:05:33.827Z,23.50
2018-07-25T06:08:02.793Z,23.60
2018-07-25T06:10:31.751Z,23.70
2018-07-25T06:13:00.727Z,23.70
2018-07-25T06:15:30.009Z,23.80
2018-07-25T06:17:58.977Z,23.80
2018-07-25T06:20:27.703Z,23.90
2018-07-25T06:22:56.967Z,24.00
2018-07-25T06:25:25.877Z,24.00
2018-07-25T06:27:54.519Z,24.10
2018-07-25T06:30:23.453Z,24.20
2018-07-25T06:32:52.131Z,24.20
2018-07-25T06:35:20.776Z,24.20
2018-07-25T06:37:49.481Z,24.30
2018-07-25T06:40:18.866Z,24.30
2018-07-25T06:42:49.045Z,24.40
2018-07-25T06:45:18.127Z,24.50
2018-07-25T06:47:46.749Z,24.50
2018-07-25T06:50:15.759Z,24.60
2018-07-25T06:52:44.445Z,24.70
2018-07-25T06:55:13.064Z,24.70
2018-07-25T06:57:42.249Z,24.80
2018-07-25T07:00:11.229Z,24.80
2018-07-25T07:02:40.222Z,24.90
2018-07-25T07:05:09.192Z,25.00
2018-07-25T07:07:37.915Z,25.00
2018-07-25T07:10:06.677Z,25.10
2018-07-25T07:12:35.301Z,25.20
2018-07-25T07:15:04.880Z,25.30
2018-07-25T07:17:33.570Z,25.30
2018-07-25T07:20:02.380Z,25.40
2018-07-25T07:22:31.072Z,25.40
2018-07-25T07:24:59.687Z,25.60
2018-07-25T07:27:28.305Z,25.70
2018-07-25T07:29:56.970Z,25.70
2018-07-25T07:32:26.080Z,25.80
2018-07-25T07:34:54.699Z,25.80
2018-07-25T07:37:23.390Z,25.90
2018-07-25T07:39:52.586Z,26.00
2018-07-25T07:42:21.234Z,26.10
2018-07-25T07:44:50.566Z,26.10
2018-07-25T07:47:19.356Z,26.10
2018-07-25T07:49:48.036Z,26.20
2018-07-25T07:52:16.904Z,26.30
2018-07-25T07:54:45.616Z,26.40
2018-07-25T07:57:14.242Z,26.40
2018-07-25T07:59:42.900Z,26.50
2018-07-25T08:02:11.804Z,26.50
2018-07-25T08:04:40.470Z,26.50
2018-07-25T08:07:09.218Z,26.60
2018-07-25T08:09:37.865Z,26.60
2018-07-25T08:12:06.912Z,26.70
2018-07-25T08:14:36.288Z,26.70
2018-07-25T08:17:04.893Z,26.80
2018-07-25T08:19:33.613Z,27.00
2018-07-25T08:22:02.289Z,27.10
2018-07-25T08:24:30.941Z,27.10
2018-07-25T08:26:59.557Z,27.10
2018-07-25T08:29:28.585Z,27.20
2018-07-25T08:31:57.301Z,27.30
2018-07-25T08:34:25.998Z,27.40
2018-07-25T08:36:54.788Z,27.50
2018-07-25T08:39:23.669Z,27.70
2018-07-25T08:41:52.361Z,27.70
2018-07-25T08:44:21.065Z,27.70
2018-07-25T08:46:50.098Z,27.80
2018-07-25T08:49:18.885Z,27.90
2018-07-25T08:51:47.647Z,28.00
2018-07-25T08:54:16.651Z,27.90
2018-07-25T08:56:45.285Z,28.00
2018-07-25T08:59:14.003Z,28.10
2018-07-25T09:01:43.023Z,28.20
2018-07-25T09:04:11.864Z,28.50
2018-07-25T09:06:40.503Z,28.70
2018-07-25T09:09:10.333Z,28.80
2018-07-25T09:11:39.061Z,28.90
2018-07-25T09:14:07.687Z,28.70
2018-07-25T09:16:36.343Z,28.70
2018-07-25T09:19:05.440Z,28.70
2018-07-25T09:21:34.415Z,28.70
2018-07-25T09:24:03.093Z,28.90
2018-07-25T09:26:31.767Z,29.00
2018-07-25T09:29:00.471Z,29.10
2018-07-25T09:31:29.801Z,29.00
2018-07-25T09:33:58.855Z,28.80
2018-07-25T09:36:27.723Z,28.60
2018-07-25T09:38:56.381Z,28.60
2018-07-25T09:41:25.231Z,28.70
2018-07-25T09:43:54.065Z,28.90
2018-07-25T09:46:22.914Z,29.20
2018-07-25T09:48:51.904Z,29.30
2018-07-25T09:51:20.840Z,29.40
2018-07-25T09:53:49.769Z,29.50
2018-07-25T09:56:18.573Z,29.50
2018-07-25T09:58:47.586Z,29.50
2018-07-25T10:01:16.422Z,29.50
2018-07-25T10:03:45.286Z,29.50
2018-07-25T10:06:14.410Z,29.50
2018-07-25T10:08:43.052Z,29.60
2018-07-25T10:11:12.035Z,29.70
2018-07-25T10:13:40.887Z,29.90
2018-07-25T10:16:09.587Z,30.00
2018-07-25T10:18:38.743Z,30.00
2018-07-25T10:21:07.669Z,30.10
2018-07-25T10:23:36.407Z,30.20
2018-07-25T10:26:05.345Z,30.30
2018-07-25T10:28:34.264Z,30.20
2018-07-25T10:31:03.490Z,29.90
2018-07-25T10:33:32.301Z,29.70
2018-07-25T10:36:00.907Z,29.40
2018-07-25T10:38:29.777Z,29.50
2018-07-25T10:40:58.780Z,29.60
2018-07-25T10:43:27.632Z,29.80
2018-07-25T10:45:56.522Z,30.00
2018-07-25T10:48:25.361Z,30.20
2018-07-25T10:50:54.169Z,30.40
2018-07-25T10:53:23.010Z,30.60
2018-07-25T10:55:51.890Z,30.70
2018-07-25T10:58:20.806Z,30.80
2018-07-25T11:00:49.657Z,30.90
2018-07-25T11:03:18.271Z,30.70
2018-07-25T11:05:47.132Z,30.50
2018-07-25T11:08:15.940Z,30.10
2018-07-25T11:10:44.918Z,30.00
2018-07-25T11:13:13.720Z,30.00
2018-07-25T11:15:42.762Z,30.10
2018-07-25T11:18:11.648Z,30.30
2018-07-25T11:20:40.448Z,30.30
2018-07-25T11:23:09.387Z,30.30
2018-07-25T11:25:38.151Z,30.40
2018-07-25T11:28:07.638Z,30.50
2018-07-25T11:30:36.824Z,30.60
2018-07-25T11:33:05.840Z,30.70
2018-07-25T11:35:34.515Z,30.70
2018-07-25T11:38:03.339Z,30.70
2018-07-25T11:40:32.278Z,30.80
2018-07-25T11:43:00.982Z,31.00
2018-07-25T11:45:29.608Z,31.20
2018-07-25T11:47:58.264Z,31.50
2018-07-25T11:50:27.104Z,31.70
2018-07-25T11:52:56.246Z,31.80
2018-07-25T11:55:25.041Z,31.80
2018-07-25T11:57:53.802Z,31.70
2018-07-25T12:00:22.470Z,31.90
2018-07-25T12:02:51.597Z,32.00
2018-07-25T12:05:20.484Z,32.10
2018-07-25T12:07:49.196Z,32.10
2018-07-25T12:10:18.034Z,32.20
2018-07-25T12:12:46.870Z,32.20
2018-07-25T12:15:15.703Z,32.20
2018-07-25T12:17:44.550Z,32.10
2018-07-25T12:20:16.226Z,32.00
2018-07-25T12:22:45.070Z,31.90
2018-07-25T12:25:13.912Z,31.80
2018-07-25T12:27:42.718Z,31.60
2018-07-25T12:30:11.548Z,31.60
2018-07-25T12:32:40.526Z,31.60
2018-07-25T12:35:09.320Z,31.60
2018-07-25T12:37:38.150Z,31.50
2018-07-25T12:40:07.336Z,31.50
2018-07-25T12:42:36.531Z,31.50
2018-07-25T12:45:05.483Z,31.80
2018-07-25T12:47:34.318Z,32.10
2018-07-25T12:50:03.609Z,32.10
2018-07-25T12:52:32.434Z,31.90
2018-07-25T12:55:01.299Z,31.80
2018-07-25T12:57:30.631Z,31.80
2018-07-25T12:59:59.494Z,31.90
2018-07-25T13:02:28.361Z,32.20
2018-07-25T13:04:57.549Z,32.40
2018-07-25T13:07:26.409Z,32.70
2018-07-25T13:09:55.223Z,32.90
2018-07-25T13:12:24.189Z,32.70
2018-07-25T13:14:53.018Z,32.60
2018-07-25T13:17:21.860Z,32.80
2018-07-25T13:19:50.731Z,33.00
2018-07-25T13:22:19.979Z,33.10
2018-07-25T13:24:48.824Z,33.20
2018-07-25T13:27:17.644Z,33.30
2018-07-25T13:29:46.526Z,33.40
2018-07-25T13:32:15.461Z,33.30
2018-07-25T13:34:44.287Z,33.20
2018-07-25T13:37:13.132Z,33.30
2018-07-25T13:39:42.047Z,33.50
2018-07-25T13:42:10.920Z,33.90
2018-07-25T13:44:39.828Z,34.10
2018-07-25T13:47:08.486Z,34.30
2018-07-25T13:49:37.342Z,34.50
2018-07-25T13:52:06.547Z,34.50
2018-07-25T13:54:35.421Z,34.80
2018-07-25T13:57:04.336Z,34.90
2018-07-25T13:59:33.310Z,34.80
2018-07-25T14:02:02.219Z,34.80
2018-07-25T14:04:31.148Z,34.30
2018-07-25T14:06:59.948Z,34.20
2018-07-25T14:09:28.831Z,34.20
2018-07-25T14:11:57.681Z,34.20
2018-07-25T14:14:26.554Z,34.10
2018-07-25T14:16:55.434Z,34.00
2018-07-25T14:19:24.644Z,34.20
2018-07-25T14:21:53.468Z,34.40
2018-07-25T14:24:22.356Z,34.70
2018-07-25T14:26:51.196Z,34.60
2018-07-25T14:29:20.161Z,35.00
2018-07-25T14:31:49.002Z,35.50
2018-07-25T14:34:17.866Z,35.90
2018-07-25T14:36:46.989Z,35.80
2018-07-25T14:39:15.848Z,35.60
2018-07-25T14:41:44.730Z,35.60
2018-07-25T14:44:13.571Z,35.70
2018-07-25T14:49:11.346Z,35.80
2018-07-25T14:51:40.572Z,35.90
2018-07-25T14:54:09.433Z,36.20
2018-07-25T14:56:38.329Z,36.60
2018-07-25T14:59:07.316Z,36.60
2018-07-25T15:01:36.027Z,36.40
2018-07-25T15:04:04.850Z,36.40
2018-07-25T15:06:33.704Z,36.10
2018-07-25T15:09:02.592Z,35.80
2018-07-25T15:11:31.399Z,35.40
2018-07-25T15:14:00.274Z,34.80
2018-07-25T15:16:32.174Z,34.40
2018-07-25T15:19:07.724Z,34.00
2018-07-25T15:21:36.632Z,34.00
2018-07-25T15:24:06.994Z,34.40
2018-07-25T15:26:35.852Z,34.80
2018-07-25T15:29:11.359Z,34.80
2018-07-25T15:31:40.108Z,34.70
2018-07-25T15:34:08.966Z,34.90
2018-07-25T15:36:44.934Z,35.20
2018-07-25T15:39:21.142Z,35.40
2018-07-25T15:41:51.226Z,35.90
2018-07-25T15:46:50.105Z,36.30
2018-07-25T15:49:19.030Z,36.40
2018-07-25T15:51:47.896Z,36.30
2018-07-25T15:54:16.836Z,36.30
2018-07-25T15:56:45.654Z,36.20
2018-07-25T15:59:14.798Z,36.00
2018-07-25T16:01:43.683Z,35.70
2018-07-25T16:04:12.622Z,35.50
2018-07-25T16:06:41.649Z,35.50
2018-07-25T16:09:12.027Z,35.20
2018-07-25T16:11:41.480Z,35.00
2018-07-25T16:14:10.351Z,35.00
2018-07-25T16:16:39.332Z,35.50
2018-07-25T16:19:08.547Z,35.70
2018-07-25T16:21:37.380Z,35.90
2018-07-25T16:24:06.833Z,36.10
2018-07-25T16:26:35.605Z,36.30
2018-07-25T16:29:04.943Z,36.40
2018-07-25T16:31:33.795Z,36.20
2018-07-25T16:34:02.658Z,35.90
2018-07-25T16:36:31.508Z,35.70
2018-07-25T16:39:00.696Z,35.70
2018-07-25T16:41:29.606Z,35.80
2018-07-25T16:43:58.457Z,35.70
2018-07-25T16:46:27.769Z,35.70
2018-07-25T16:48:56.695Z,35.70
2018-07-25T16:53:54.369Z,35.80
2018-07-25T16:56:25.189Z,35.70
2018-07-25T16:58:54.023Z,35.50
2018-07-25T17:01:22.907Z,35.40
2018-07-25T17:03:51.729Z,35.40
2018-07-25T17:06:20.925Z,35.50
2018-07-25T17:08:49.755Z,35.50
2018-07-25T17:11:18.777Z,35.30
2018-07-25T17:13:47.799Z,35.40
2018-07-25T17:16:16.669Z,35.60
2018-07-25T17:18:45.497Z,35.60
2018-07-25T17:21:14.412Z,35.70
2018-07-25T17:23:43.225Z,35.90
2018-07-25T17:26:12.087Z,35.90
2018-07-25T17:28:41.246Z,36.00
2018-07-25T17:31:10.050Z,36.00
2018-07-25T17:33:38.896Z,36.10
2018-07-25T17:36:07.740Z,36.20
2018-07-25T17:38:36.599Z,36.30
2018-07-25T17:41:05.576Z,36.40
2018-07-25T17:43:34.630Z,36.40
2018-07-25T17:46:03.538Z,36.30
2018-07-25T17:48:32.576Z,36.30
2018-07-25T17:51:01.526Z,36.10
2018-07-25T17:53:30.504Z,35.50
2018-07-25T17:55:59.362Z,34.80
2018-07-25T17:58:28.180Z,34.30
2018-07-25T18:00:57.030Z,33.80
2018-07-25T18:03:26.027Z,33.60
2018-07-25T18:05:54.796Z,33.30
2018-07-25T18:08:23.972Z,33.00
2018-07-25T18:10:53.146Z,32.90
2018-07-25T18:13:27.412Z,32.60
2018-07-25T18:15:56.252Z,32.40
2018-07-25T18:18:25.075Z,32.20
2018-07-25T18:20:53.889Z,32.10
2018-07-25T18:23:22.746Z,31.90
2018-07-25T18:25:51.571Z,31.80
2018-07-25T18:28:20.427Z,31.70
2018-07-25T18:30:49.270Z,31.60
2018-07-25T18:33:18.143Z,31.50
2018-07-25T18:35:47.171Z,31.40
2018-07-25T18:38:15.907Z,31.30
2018-07-25T18:40:44.841Z,31.20
2018-07-25T18:43:13.669Z,31.00
2018-07-25T18:45:42.524Z,31.00
2018-07-25T18:48:11.349Z,30.80
2018-07-25T18:50:40.533Z,30.70
2018-07-25T18:53:09.785Z,30.60
2018-07-25T18:55:38.741Z,30.50
2018-07-25T18:58:07.635Z,30.40
2018-07-25T19:00:36.331Z,30.30
2018-07-25T19:03:05.417Z,30.20
2018-07-25T19:05:34.465Z,30.00
2018-07-25T19:08:03.108Z,29.90
2018-07-25T19:10:31.791Z,29.90
2018-07-25T19:13:00.538Z,29.70
2018-07-25T19:15:32.383Z,29.70
2018-07-25T19:18:01.513Z,29.60
2018-07-25T19:20:30.511Z,29.50
2018-07-25T19:22:59.177Z,29.40
2018-07-25T19:25:27.889Z,29.40
2018-07-25T19:27:56.537Z,29.20
2018-07-25T19:30:25.319Z,29.20
2018-07-25T19:32:53.931Z,29.00
2018-07-25T19:35:22.920Z,28.90
2018-07-25T19:37:51.736Z,28.90
2018-07-25T19:40:20.420Z,28.80
2018-07-25T19:42:49.571Z,28.70
2018-07-25T19:45:18.186Z,28.60
2018-07-25T19:47:46.818Z,28.60
2018-07-25T19:50:15.846Z,28.50
2018-07-25T19:52:44.639Z,28.40
2018-07-25T19:55:13.262Z,28.30
2018-07-25T19:57:42.242Z,28.20
2018-07-25T20:00:16.380Z,28.20
2018-07-25T20:02:39.763Z,28.20
2018-07-25T20:05:08.774Z,28.10
2018-07-25T20:07:37.395Z,28.00
2018-07-25T20:10:06.028Z,27.90
2018-07-25T20:15:08.671Z,27.90
2018-07-25T20:17:37.319Z,27.80
2018-07-25T20:22:34.503Z,27.70
2018-07-25T20:25:03.139Z,27.60
2018-07-25T20:27:32.501Z,27.60
2018-07-25T20:30:01.185Z,27.50
2018-07-25T20:32:30.151Z,27.40
2018-07-25T20:34:58.945Z,27.40
2018-07-25T20:37:27.567Z,27.30
2018-07-25T20:39:56.509Z,27.30
2018-07-25T20:42:25.141Z,27.20
2018-07-25T20:44:53.876Z,27.10
2018-07-25T20:47:22.976Z,27.10
2018-07-25T20:49:51.669Z,27.00
2018-07-25T20:52:20.519Z,27.00
2018-07-25T20:54:49.163Z,27.00
2018-07-25T20:57:17.813Z,27.00
2018-07-25T20:59:46.493Z,26.90
2018-07-25T21:02:15.226Z,26.90
2018-07-25T21:04:44.287Z,26.80
2018-07-25T21:07:12.980Z,26.80
2018-07-25T21:09:41.645Z,26.80
2018-07-25T21:12:10.276Z,26.70
2018-07-25T21:14:38.919Z,26.70
2018-07-25T21:17:07.541Z,26.70
2018-07-25T21:19:36.230Z,26.60
2018-07-25T21:22:04.885Z,26.60
2018-07-25T21:24:33.516Z,26.60
2018-07-25T21:27:02.345Z,26.60
2018-07-25T21:29:30.969Z,26.50
2018-07-25T21:31:59.578Z,26.50
2018-07-25T21:34:28.309Z,26.40
2018-07-25T21:36:57.103Z,26.40
2018-07-25T21:39:25.802Z,26.40
2018-07-25T21:41:54.845Z,26.40
2018-07-25T21:44:23.472Z,26.40
2018-07-25T21:46:52.124Z,26.30
2018-07-25T21:49:20.739Z,26.30
2018-07-25T21:51:49.462Z,26.30
2018-07-25T21:54:18.120Z,26.30
2018-07-25T21:56:46.744Z,26.20
2018-07-25T21:59:15.378Z,26.20
2018-07-25T22:01:44.388Z,26.10
2018-07-25T22:06:41.452Z,26.00
2018-07-25T22:09:11.462Z,26.00
2018-07-25T22:11:40.669Z,26.00
2018-07-25T22:14:09.735Z,26.00
2018-07-25T22:16:38.713Z,25.90
2018-07-25T22:19:07.343Z,25.90
2018-07-25T22:21:35.952Z,25.80
2018-07-25T22:24:04.623Z,25.70
2018-07-25T22:26:33.221Z,25.70
2018-07-25T22:29:02.312Z,25.60
2018-07-25T22:31:31.655Z,25.60
2018-07-25T22:34:00.267Z,25.50
2018-07-25T22:36:28.927Z,25.50
2018-07-25T22:38:57.551Z,25.40
2018-07-25T22:41:26.162Z,25.30
2018-07-25T22:43:54.787Z,25.30
2018-07-25T22:46:23.787Z,25.20
2018-07-25T22:48:52.409Z,25.20
2018-07-25T22:51:21.039Z,25.10
2018-07-25T22:53:49.647Z,25.10
2018-07-25T22:56:18.268Z,25.00
2018-07-25T22:58:46.869Z,25.00
2018-07-25T23:01:15.515Z,24.90
2018-07-25T23:03:44.273Z,24.80
2018-07-25T23:06:13.222Z,24.80
2018-07-25T23:08:41.867Z,24.70
2018-07-25T23:11:10.801Z,24.60
2018-07-25T23:13:43.634Z,24.60
2018-07-25T23:16:12.563Z,24.50
2018-07-25T23:18:41.183Z,24.50
2018-07-25T23:21:10.320Z,24.40
2018-07-25T23:23:39.268Z,24.40
2018-07-25T23:26:08.165Z,24.40
2018-07-25T23:28:37.088Z,24.40
2018-07-25T23:31:06.372Z,24.30
2018-07-25T23:33:35.268Z,24.20
2018-07-25T23:36:04.159Z,24.20
2018-07-25T23:38:33.082Z,24.10
2018-07-25T23:41:02.010Z,24.10
2018-07-25T23:43:30.898Z,24.00
2018-07-25T23:45:59.940Z,24.00
2018-07-25T23:48:28.859Z,24.00
2018-07-25T23:50:57.773Z,24.00
2018-07-25T23:53:26.715Z,23.90
2018-07-25T23:55:55.740Z,23.90
2018-07-25T23:58:25.014Z,23.90
